Pagrindinis puslapis
METAR-TAF:

METAR-TAF

Oro uostai :

Haugesiundas, Norvegija

platuma: 59-21N, ilguma: 005-13E, Aukštis: 2 m

Dabartinis oras

Ataskaita buvo paskelbta 33 minutes, ne 03:20 UTC
Vėjas 22 kt iš Šiaurės
Temperatūra 11°C
Drėgmė 87%
Slėgis 1014 hPa
Matomumas 10 km arba daugiau

METAR: ENHD 220320Z AUTO 35022KT 9999 NCD 11/09 Q1014

Laikas: 05:53 (03:53 UTC)

Prognozė

Ataskaita buvo paskelbta 1 valandą ir 53 minutes, ne 02:00 UTC
Prognozė galioja nuo 22 metu 03 UTC su 22 metu 12 UTC
Vėjas 20 kt iš Šiaurės
Matomumas 10 km arba daugiau
Mažai debesys ne aukštis 2000 ft
Išsisklaidę debesys ne aukštis 4000 ft
Laikinai
nuo 22 metu 03 UTC su 22 metu 12 UTC
Vėjas 25 kt iš Šiaurės su gūsio iki 35 kt
Tikimybė 30%
nuo 22 metu 03 UTC su 22 metu 06 UTC
Su prošvaistėmis ne aukštis 1200 ft

TAF: ENHD 220200Z 2203/2212 35020KT 9999 FEW020 SCT040 TEMPO 2203/2212 35025G35KT PROB30 2203/2206 BKN012

Orai ataskaitas ir orų prognozės (METAR, TAF).

turimą stotys yra geltonos ir raudonos taškus žemėlapyje.

Perkelti pele per norėdami pamatyti stoties vardą.

Tada spustelėkite, norėdami matyti oro stebėjimo ir prognozės.

Norėdami pakeisti žemėlapį: spustelėkite ant žalios mygtukų su juodo kryžiaus žemyn,; žalią mygtuką su brūkšneliu, jei norite nutolinti; arba žalių rodyklių gretimoms žemėlapius.


METAR-TAF: